createdAt,value
2018-11-23T00:04:25.842Z,1.28
2018-11-23T00:09:44.316Z,1.23
2018-11-23T00:15:02.852Z,1.14
2018-11-23T00:20:22.648Z,1.14
2018-11-23T00:25:42.185Z,1.14
2018-11-23T00:30:59.729Z,1.17
2018-11-23T00:36:18.192Z,1.14
2018-11-23T00:41:36.987Z,1.22
2018-11-23T00:46:55.535Z,1.04
2018-11-23T00:52:14.064Z,0.97
2018-11-23T00:57:32.640Z,0.94
2018-11-23T01:02:51.268Z,0.91
2018-11-23T01:08:09.816Z,0.97
2018-11-23T01:13:28.337Z,0.95
2018-11-23T01:18:46.904Z,0.92
2018-11-23T01:24:05.520Z,0.90
2018-11-23T01:29:24.009Z,0.86
2018-11-23T01:34:42.543Z,0.89
2018-11-23T01:40:01.071Z,0.86
2018-11-23T01:45:19.593Z,0.98
2018-11-23T01:50:38.196Z,0.93
2018-11-23T01:55:56.774Z,0.81
2018-11-23T02:01:15.298Z,0.78
2018-11-23T02:06:33.794Z,0.69
2018-11-23T02:11:52.378Z,0.58
2018-11-23T02:17:10.995Z,0.48
2018-11-23T02:22:29.545Z,0.44
2018-11-23T02:27:48.003Z,0.31
2018-11-23T02:33:06.561Z,0.32
2018-11-23T02:38:25.077Z,0.22
2018-11-23T02:43:43.672Z,0.23
2018-11-23T02:49:02.167Z,0.17
2018-11-23T02:54:20.950Z,0.13
2018-11-23T02:59:39.517Z,0.01
2018-11-23T03:04:58.007Z,-0.02
2018-11-23T03:10:17.155Z,-0.02
2018-11-23T03:15:35.610Z,-0.05
2018-11-23T03:20:54.149Z,-0.09
2018-11-23T03:26:12.636Z,-0.21
2018-11-23T03:31:31.219Z,-0.25
2018-11-23T03:36:49.749Z,-0.25
2018-11-23T03:42:08.364Z,-0.29
2018-11-23T03:47:26.890Z,-0.36
2018-11-23T03:52:45.660Z,-0.38
2018-11-23T03:58:04.169Z,-0.41
2018-11-23T04:03:22.663Z,-0.27
2018-11-23T04:08:41.269Z,-0.28
2018-11-23T04:13:59.763Z,-0.46
2018-11-23T04:19:18.274Z,-0.40
2018-11-23T04:24:36.759Z,-0.39
2018-11-23T04:29:55.255Z,-0.46
2018-11-23T04:35:15.089Z,-0.43
2018-11-23T04:40:33.582Z,-0.35
2018-11-23T04:45:52.279Z,-0.43
2018-11-23T04:51:10.872Z,-0.41
2018-11-23T04:56:29.416Z,-0.41
2018-11-23T05:01:47.955Z,-0.45
2018-11-23T05:07:06.455Z,-0.41
2018-11-23T05:12:24.962Z,-0.42
2018-11-23T05:17:43.696Z,-0.58
2018-11-23T05:23:02.197Z,-0.54
2018-11-23T05:28:20.788Z,-0.51
2018-11-23T05:33:39.343Z,-0.56
2018-11-23T05:38:57.839Z,-0.56
2018-11-23T05:44:16.352Z,-0.55
2018-11-23T05:49:34.839Z,-0.56
2018-11-23T05:54:53.381Z,-0.43
2018-11-23T06:00:14.936Z,-0.39
2018-11-23T06:05:33.448Z,-0.39
2018-11-23T06:10:51.974Z,-0.36
2018-11-23T06:16:10.520Z,-0.46
2018-11-23T06:21:29.068Z,-0.64
2018-11-23T06:26:47.688Z,-0.64
2018-11-23T06:32:16.241Z,-0.61
2018-11-23T06:37:34.764Z,-0.66
2018-11-23T06:42:53.269Z,-0.42
2018-11-23T06:48:12.147Z,-0.50
2018-11-23T06:53:30.665Z,-0.46
2018-11-23T06:58:49.180Z,-0.47
2018-11-23T07:04:07.665Z,-0.37
2018-11-23T07:09:26.156Z,-0.40
2018-11-23T07:14:44.679Z,-0.42
2018-11-23T07:20:03.295Z,-0.30
2018-11-23T07:25:21.814Z,-0.23
2018-11-23T07:30:40.348Z,-0.22
2018-11-23T07:35:59.288Z,-0.15
2018-11-23T07:41:29.072Z,-0.06
2018-11-23T07:46:47.652Z,0.11
2018-11-23T07:52:06.288Z,0.11
2018-11-23T07:57:24.748Z,0.26
2018-11-23T08:02:43.828Z,0.21
2018-11-23T08:08:02.332Z,0.40
2018-11-23T08:13:20.999Z,0.47
2018-11-23T08:18:39.546Z,0.64
2018-11-23T08:23:58.083Z,0.78
2018-11-23T08:29:16.628Z,0.99
2018-11-23T08:34:35.133Z,1.14
2018-11-23T08:39:53.642Z,1.32
2018-11-23T08:45:13.912Z,1.38
2018-11-23T08:50:32.489Z,1.56
2018-11-23T08:55:51.015Z,1.71
2018-11-23T09:01:09.544Z,1.86
2018-11-23T09:06:28.072Z,2.05
2018-11-23T09:11:46.624Z,2.17
2018-11-23T09:17:05.337Z,2.31
2018-11-23T09:22:23.869Z,2.39
2018-11-23T09:27:42.496Z,2.75
2018-11-23T09:33:01.166Z,3.03
2018-11-23T09:38:19.688Z,3.11
2018-11-23T09:43:38.283Z,3.28
2018-11-23T09:48:56.864Z,3.58
2018-11-23T09:54:15.665Z,3.71
2018-11-23T09:59:34.147Z,3.88
2018-11-23T10:04:53.624Z,4.04
2018-11-23T10:10:13.103Z,4.19
2018-11-23T10:15:32.499Z,4.39
2018-11-23T10:20:51.003Z,4.61
2018-11-23T10:26:09.515Z,4.87
2018-11-23T10:31:28.214Z,5.04
2018-11-23T10:36:48.023Z,5.15
2018-11-23T10:42:07.275Z,5.23
2018-11-23T10:47:25.730Z,5.39
2018-11-23T10:52:44.352Z,5.47
2018-11-23T10:58:02.920Z,5.56
2018-11-23T11:03:37.649Z,5.76
2018-11-23T11:08:56.182Z,6.32
2018-11-23T11:14:14.790Z,6.59
2018-11-23T11:19:33.266Z,6.81
2018-11-23T11:24:51.733Z,6.88
2018-11-23T11:30:12.364Z,6.97
2018-11-23T11:35:30.909Z,7.04
2018-11-23T11:40:49.426Z,7.05
2018-11-23T11:46:08.404Z,7.16
2018-11-23T11:51:27.055Z,7.32
2018-11-23T11:56:45.571Z,7.27
2018-11-23T12:02:06.683Z,7.30
2018-11-23T12:07:22.712Z,7.33
2018-11-23T12:12:41.265Z,7.38
2018-11-23T12:17:59.795Z,7.42
2018-11-23T12:23:18.277Z,7.44
2018-11-23T12:28:36.776Z,7.54
2018-11-23T12:33:55.278Z,7.61
2018-11-23T12:39:13.792Z,7.77
2018-11-23T12:44:32.333Z,8.01
2018-11-23T12:49:50.833Z,8.00
2018-11-23T12:55:10.036Z,7.96
2018-11-23T13:00:29.460Z,8.62
2018-11-23T13:05:48.033Z,8.55
2018-11-23T13:11:06.555Z,8.49
2018-11-23T13:16:25.466Z,8.53
2018-11-23T13:21:44.036Z,8.42
2018-11-23T13:27:02.574Z,8.42
2018-11-23T13:32:21.100Z,8.41
2018-11-23T13:37:39.598Z,8.35
2018-11-23T13:42:59.053Z,8.29
2018-11-23T13:48:20.091Z,8.07
2018-11-23T13:53:36.052Z,8.15
2018-11-23T13:58:54.603Z,8.59
2018-11-23T14:04:13.120Z,8.69
2018-11-23T14:09:31.637Z,8.55
2018-11-23T14:14:50.088Z,8.33
2018-11-23T14:20:10.653Z,8.21
2018-11-23T14:25:30.805Z,8.01
2018-11-23T14:30:49.420Z,7.95
2018-11-23T14:36:07.947Z,7.91
2018-11-23T14:41:26.739Z,7.72
2018-11-23T14:46:45.436Z,7.77
2018-11-23T14:52:03.961Z,7.59
2018-11-23T14:57:22.478Z,7.49
2018-11-23T15:02:41.199Z,7.33
2018-11-23T15:07:59.754Z,7.06
2018-11-23T15:13:18.315Z,6.93
2018-11-23T15:18:36.811Z,6.76
2018-11-23T15:23:55.389Z,6.60
2018-11-23T15:29:14.292Z,6.38
2018-11-23T15:34:32.781Z,6.15
2018-11-23T15:39:51.244Z,5.97
2018-11-23T15:45:13.082Z,5.72
2018-11-23T15:50:33.806Z,5.64
2018-11-23T15:55:52.449Z,5.55
2018-11-23T16:01:11.016Z,5.49
2018-11-23T16:06:29.532Z,5.78
2018-11-23T16:11:48.070Z,5.78
2018-11-23T16:17:06.586Z,5.45
2018-11-23T16:22:25.060Z,5.27
2018-11-23T16:27:44.659Z,5.01
2018-11-23T16:33:04.508Z,4.90
2018-11-23T16:38:24.085Z,4.77
2018-11-23T16:43:42.581Z,4.66
2018-11-23T16:49:01.062Z,4.56
2018-11-23T16:54:19.624Z,4.49
2018-11-23T16:59:38.225Z,4.42
2018-11-23T17:04:56.760Z,4.33
2018-11-23T17:10:16.468Z,4.19
2018-11-23T17:15:35.063Z,4.10
2018-11-23T17:20:53.822Z,3.94
2018-11-23T17:26:12.323Z,3.88
2018-11-23T17:31:30.868Z,3.78
2018-11-23T17:36:49.392Z,3.68
2018-11-23T17:42:07.918Z,3.56
2018-11-23T17:47:26.417Z,3.49
2018-11-23T17:52:45.495Z,3.42
2018-11-23T17:58:04.127Z,3.31
2018-11-23T18:08:48.680Z,3.15
2018-11-23T18:14:07.512Z,3.02
2018-11-23T18:19:26.512Z,2.99
2018-11-23T18:24:45.487Z,2.96
2018-11-23T18:30:05.078Z,2.84
2018-11-23T18:35:24.110Z,2.78
2018-11-23T18:40:42.718Z,2.79
2018-11-23T18:46:01.247Z,2.73
2018-11-23T18:51:19.768Z,2.59
2018-11-23T18:56:38.379Z,2.51
2018-11-23T19:01:57.019Z,2.43
2018-11-23T19:07:15.578Z,2.36
2018-11-23T19:12:34.192Z,2.32
2018-11-23T19:17:52.793Z,2.20
2018-11-23T19:23:11.548Z,2.18
2018-11-23T19:28:30.366Z,2.15
2018-11-23T19:33:48.971Z,2.08
2018-11-23T19:39:08.601Z,2.05
2018-11-23T19:44:27.154Z,1.98
2018-11-23T19:49:45.685Z,1.91
2018-11-23T19:55:05.226Z,1.90
2018-11-23T20:00:24.945Z,1.82
2018-11-23T20:05:43.561Z,1.73
2018-11-23T20:11:02.161Z,1.74
2018-11-23T20:16:20.715Z,1.68
2018-11-23T20:21:39.374Z,1.56
2018-11-23T20:26:58.216Z,1.52
2018-11-23T20:32:16.840Z,1.49
2018-11-23T20:37:36.097Z,1.44
2018-11-23T20:42:54.839Z,1.32
2018-11-23T20:48:13.523Z,1.31
2018-11-23T20:53:32.356Z,1.34
2018-11-23T20:58:51.072Z,1.21
2018-11-23T21:04:09.632Z,1.21
2018-11-23T21:09:31.215Z,1.10
2018-11-23T21:14:47.095Z,1.08
2018-11-23T21:20:06.789Z,1.03
2018-11-23T21:25:25.354Z,0.96
2018-11-23T21:30:43.869Z,0.93
2018-11-23T21:36:02.368Z,0.94
2018-11-23T21:41:20.916Z,0.97
2018-11-23T21:46:39.629Z,0.91
2018-11-23T21:51:58.136Z,0.82
2018-11-23T21:57:16.684Z,0.75
2018-11-23T22:02:35.241Z,0.63
2018-11-23T22:07:53.761Z,0.68
2018-11-23T22:13:12.257Z,0.57
2018-11-23T22:18:30.751Z,0.55
2018-11-23T22:23:49.240Z,0.56
2018-11-23T22:29:07.721Z,0.48
2018-11-23T22:34:26.328Z,0.48
2018-11-23T22:39:44.877Z,0.45
2018-11-23T22:45:03.428Z,0.43
2018-11-23T22:50:23.761Z,0.40
2018-11-23T22:55:42.287Z,0.33
2018-11-23T23:01:02.993Z,0.30
2018-11-23T23:06:21.479Z,0.33
2018-11-23T23:11:39.975Z,0.23
2018-11-23T23:16:58.615Z,0.23
2018-11-23T23:22:17.104Z,0.17
2018-11-23T23:27:35.634Z,0.22
2018-11-23T23:32:54.133Z,0.21
2018-11-23T23:38:12.647Z,0.25
2018-11-23T23:43:31.169Z,0.15
2018-11-23T23:48:49.690Z,0.14
2018-11-23T23:54:08.192Z,0.14
2018-11-23T23:59:26.667Z,0.18
